Clair Mel City, Florida
Current Conditions -  °F | °C
As of 4:15 AM on Wednesday 22 Oct 2014 (Local Time) from KVDF Reporting Station
Haze Haze  
Wind Chill: 68°   Ceiling: Unl
Heat Index: 68°   Visibility: 3mi
Dew Point: 64°   Wind: 0mph
Humidity: 88%   Direction: NA
Pressure: 29.94"   Gusts: NA
Location:  27.9256°N, 82.3736°W
Report Text: KVDF 220815Z AUTO 00000KT 3SM BR CLR 20/18 A2994 RMK AO2
Loading
Personal Weather Stations






























Interactive Weather Map
Tropical Storm Tracking
New forecast layout! Learn more

10-Day Weather Forecast

Advertisements
Track Severe Weather on mobile